Time;durP1;ratioP1;P1;durP2;ratioP2;P2;SDS_P1;SDS_P2;PMS_P1;PMS_P2;Temp;Humidity;BMP_temperature;BMP_pressure;BME280_temperature;BME280_humidity;BME280_pressure;Samples;Min_cycle;Max_cycle;Signal;HPM_P1;HPM_P2
2023/10/29 00:00:31;;;;;;;8.93;1.75;;;;;;;21.22;62.98;96327.19;5095284;28;20016;-31
2023/10/29 00:02:57;;;;;;;9.55;1.73;;;;;;;21.05;63.86;96326.34;5095387;28;20031;-31
2023/10/29 00:05:23;;;;;;;8.50;2.10;;;;;;;21.30;63.00;96330.19;5095130;28;20016;-31
2023/10/29 00:07:48;;;;;;;5.97;1.20;;;;;;;21.29;63.57;96334.19;5094940;28;20051;-31
2023/10/29 00:10:16;;;;;;;7.65;1.55;;;;;;;21.19;63.96;96344.72;5102337;28;20490;-31
2023/10/29 00:12:41;;;;;;;8.30;1.60;;;;;;;21.26;63.65;96337.97;5094841;28;20076;-31
2023/10/29 00:15:07;;;;;;;11.23;1.45;;;;;;;21.28;64.10;96340.97;5095164;28;20110;-31
2023/10/29 00:17:33;;;;;;;12.43;1.55;;;;;;;21.10;64.69;96340.16;5094949;28;20471;-31
2023/10/29 00:19:59;;;;;;;7.35;1.35;;;;;;;21.28;64.37;96336.19;5095168;28;20020;-31
2023/10/29 00:22:28;;;;;;;8.65;1.38;;;;;;;21.13;64.79;96341.19;5095209;28;20023;-32
2023/10/29 00:24:53;;;;;;;7.90;1.73;;;;;;;21.32;64.32;96338.72;5094965;28;20048;-31
2023/10/29 00:27:19;;;;;;;7.18;1.48;;;;;;;21.32;64.30;96339.47;5094742;28;20062;-31
2023/10/29 00:29:46;;;;;;;8.38;2.00;;;;;;;21.12;64.95;96343.19;5094743;28;20061;-31
2023/10/29 00:32:12;;;;;;;5.90;1.20;;;;;;;21.20;64.82;96339.97;5094639;28;20062;-31
2023/10/29 00:34:38;;;;;;;10.68;1.98;;;;;;;21.30;64.68;96350.25;5097896;28;20031;-32
2023/10/29 00:37:04;;;;;;;9.68;1.95;;;;;;;21.23;64.96;96336.22;5098736;28;20023;-32
2023/10/29 00:39:29;;;;;;;9.27;1.50;;;;;;;21.24;64.85;96341.22;5094621;28;20479;-31
2023/10/29 00:41:55;;;;;;;9.57;1.65;;;;;;;21.23;65.03;96352.75;5094577;28;20015;-31
2023/10/29 00:44:21;;;;;;;9.80;1.90;;;;;;;21.25;65.20;96339.22;5094794;28;20024;-31
2023/10/29 00:46:46;;;;;;;8.52;1.65;;;;;;;21.29;65.05;96336.94;5094034;28;20073;-31
2023/10/29 00:49:12;;;;;;;7.68;2.40;;;;;;;21.16;65.38;96335.41;5102146;28;20023;-31
2023/10/29 00:51:37;;;;;;;6.20;1.45;;;;;;;21.15;65.11;96338.66;5094654;28;20102;-31
2023/10/29 00:54:04;;;;;;;7.72;1.58;;;;;;;21.13;65.07;96344.69;5094662;28;20654;-31
2023/10/29 00:56:30;;;;;;;8.45;1.73;;;;;;;21.13;64.85;96347.44;5094237;28;20466;-32
2023/10/29 00:58:56;;;;;;;9.07;1.63;;;;;;;21.41;63.73;96349.50;5101411;28;20023;-31
2023/10/29 01:01:22;;;;;;;7.63;1.42;;;;;;;21.32;64.14;96349.75;5094713;28;20016;-31
2023/10/29 01:03:48;;;;;;;8.63;1.35;;;;;;;21.36;64.35;96356.53;5094455;28;20517;-31
2023/10/29 01:06:15;;;;;;;8.80;1.85;;;;;;;21.32;64.08;96347.75;5093705;28;20028;-31
2023/10/29 01:08:41;;;;;;;8.02;1.30;;;;;;;21.44;63.78;96351.28;5094013;28;20027;-31
2023/10/29 01:11:07;;;;;;;6.88;1.13;;;;;;;21.31;64.10;96340.72;5093544;28;20191;-31
2023/10/29 01:13:33;;;;;;;7.95;1.33;;;;;;;21.29;64.44;96350.75;5094066;28;20051;-31
2023/10/29 01:15:58;;;;;;;9.93;1.83;;;;;;;21.17;64.64;96345.19;5094344;28;20028;-31
2023/10/29 01:18:24;;;;;;;9.85;1.33;;;;;;;21.25;64.27;96347.50;5094234;28;20471;-31
2023/10/29 01:20:49;;;;;;;11.93;1.73;;;;;;;21.27;64.76;96339.44;5093812;28;20111;-32
2023/10/29 01:23:17;;;;;;;7.28;1.17;;;;;;;21.41;64.01;96350.25;5093697;28;20039;-31
2023/10/29 01:25:43;;;;;;;6.70;1.38;;;;;;;21.43;64.02;96349.75;5093837;28;20024;-31
2023/10/29 01:28:09;;;;;;;7.32;1.65;;;;;;;21.25;64.38;96355.78;5093550;28;20031;-31
2023/10/29 01:30:35;;;;;;;7.63;1.73;;;;;;;21.44;63.68;96343.75;5094194;28;20024;-31
2023/10/29 01:33:00;;;;;;;3.88;1.20;;;;;;;21.35;64.50;96343.25;5093721;28;20020;-31
2023/10/29 01:35:26;;;;;;;9.73;1.60;;;;;;;21.47;63.85;96344.75;5093697;28;20030;-31
2023/10/29 01:37:51;;;;;;;7.47;1.30;;;;;;;21.31;64.23;96342.72;5093928;28;20452;-32
2023/10/29 01:40:17;;;;;;;6.55;1.40;;;;;;;21.12;64.90;96340.44;5093523;28;20042;-31
2023/10/29 01:42:45;;;;;;;6.15;1.30;;;;;;;21.34;64.05;96347.25;5093576;28;20024;-32
2023/10/29 01:45:14;;;;;;;6.38;1.27;;;;;;;21.30;64.60;96338.47;5092452;28;20024;-30
2023/10/29 01:47:39;;;;;;;7.97;1.67;;;;;;;21.21;64.71;96333.19;5093593;28;20410;-31
2023/10/29 01:50:06;;;;;;;3.85;0.77;;;;;;;21.25;64.72;96337.22;5093682;28;20024;-31
2023/10/29 01:52:31;;;;;;;8.52;1.08;;;;;;;21.28;64.66;96333.44;5093861;28;20020;-31
2023/10/29 01:54:57;;;;;;;7.20;1.10;;;;;;;21.34;64.63;96333.47;5093504;28;20032;-31
2023/10/29 01:57:23;;;;;;;5.13;1.20;;;;;;;21.40;64.29;96334.19;5093367;28;20414;-32
2023/10/29 01:59:48;;;;;;;5.35;1.30;;;;;;;21.29;64.19;96336.94;5094015;28;20020;-31
2023/10/29 02:02:13;;;;;;;4.18;0.93;;;;;;;21.11;65.22;96330.66;5091986;28;20027;-31
2023/10/29 02:04:39;;;;;;;9.43;1.20;;;;;;;21.08;65.11;96339.16;5093554;28;20028;-31
2023/10/29 02:07:04;;;;;;;8.75;1.58;;;;;;;21.24;64.99;96335.72;5093931;28;20024;-31
2023/10/29 02:09:30;;;;;;;8.82;1.17;;;;;;;21.31;64.34;96329.69;5093217;28;20024;-31
2023/10/29 02:11:55;;;;;;;5.90;1.10;;;;;;;21.32;64.24;96338.72;5093414;28;20051;-31
2023/10/29 02:14:21;;;;;;;5.45;1.10;;;;;;;21.43;63.92;96339.47;5100823;28;20024;-31
2023/10/29 02:16:46;;;;;;;7.78;1.13;;;;;;;21.42;64.01;96331.69;5100100;28;20023;-31
2023/10/29 02:19:12;;;;;;;7.70;1.73;;;;;;;21.26;64.48;96329.69;5093809;28;20066;-31
2023/10/29 02:21:37;;;;;;;5.85;1.10;;;;;;;21.24;64.61;96326.69;5093315;28;20566;-31
2023/10/29 02:24:03;;;;;;;6.88;0.90;;;;;;;21.34;64.34;96330.69;5092963;28;20020;-31
2023/10/29 02:26:28;;;;;;;5.22;1.17;;;;;;;21.24;64.50;96312.91;5092130;28;20024;-31
2023/10/29 02:28:54;;;;;;;7.20;1.08;;;;;;;21.26;64.46;96324.94;5093041;28;20078;-31
2023/10/29 02:31:20;;;;;;;3.72;1.05;;;;;;;21.28;64.17;96316.13;5100935;28;20479;-31
2023/10/29 02:33:48;;;;;;;6.18;1.38;;;;;;;21.25;64.56;96317.91;5093174;28;20169;-31
2023/10/29 02:36:14;;;;;;;4.13;1.20;;;;;;;21.36;64.37;96322.69;5095085;28;20491;-31
2023/10/29 02:38:40;;;;;;;6.15;1.30;;;;;;;21.28;64.22;96322.41;5096497;28;20020;-33
2023/10/29 02:41:07;;;;;;;4.72;1.35;;;;;;;21.22;64.36;96315.41;5097012;28;20099;-31
2023/10/29 02:43:33;;;;;;;5.75;1.27;;;;;;;21.39;64.21;96321.66;5097173;28;20042;-31
2023/10/29 02:45:59;;;;;;;5.82;1.17;;;;;;;21.29;64.04;96318.41;5096609;28;20539;-31
2023/10/29 02:48:25;;;;;;;5.35;1.20;;;;;;;21.44;63.90;96323.69;5096865;28;20032;-31
2023/10/29 02:50:51;;;;;;;8.90;1.30;;;;;;;21.34;63.83;96320.44;5095303;28;20066;-31
2023/10/29 02:53:17;;;;;;;4.10;0.95;;;;;;;21.27;64.07;96314.63;5096001;28;20085;-31
2023/10/29 02:55:43;;;;;;;6.50;1.50;;;;;;;21.34;63.87;96319.66;5097153;28;20023;-31
2023/10/29 02:58:08;;;;;;;6.82;1.00;;;;;;;21.38;63.64;96322.94;5096333;28;20016;-32
2023/10/29 03:00:34;;;;;;;9.15;1.65;;;;;;;21.42;63.71;96307.63;5096786;28;20185;-31
2023/10/29 03:02:59;;;;;;;4.97;1.33;;;;;;;21.21;64.40;96316.66;5096546;28;20042;-31
2023/10/29 03:05:25;;;;;;;7.53;1.70;;;;;;;21.17;64.29;96320.38;5096517;28;20028;-31
2023/10/29 03:07:50;;;;;;;6.28;1.27;;;;;;;21.32;64.02;96319.41;5096157;28;20024;-31
2023/10/29 03:10:16;;;;;;;8.40;1.52;;;;;;;21.26;64.30;96322.19;5096503;28;20027;-31
2023/10/29 03:12:41;;;;;;;7.82;1.05;;;;;;;21.35;64.00;96321.19;5096416;28;20045;-31
2023/10/29 03:15:07;;;;;;;5.40;1.13;;;;;;;21.34;63.98;96333.47;5096213;28;20053;-31
2023/10/29 03:17:33;;;;;;;4.72;1.20;;;;;;;21.20;64.40;96326.91;5096118;28;20525;-31
2023/10/29 03:19:59;;;;;;;7.35;1.30;;;;;;;21.17;64.54;96330.63;5096149;28;20028;-31
2023/10/29 03:22:24;;;;;;;5.25;1.25;;;;;;;21.15;64.68;96322.09;5096480;28;20032;-31
2023/10/29 03:24:50;;;;;;;5.13;0.95;;;;;;;21.24;64.14;96338.47;5095810;28;20032;-31
2023/10/29 03:27:15;;;;;;;6.10;1.20;;;;;;;21.24;64.15;96323.94;5096233;28;20020;-31
2023/10/29 03:29:41;;;;;;;5.28;1.08;;;;;;;21.17;64.41;96334.16;5095957;28;20016;-31
2023/10/29 03:32:06;;;;;;;8.98;1.40;;;;;;;21.18;64.49;96329.38;5095892;28;20024;-31
2023/10/29 03:34:31;;;;;;;5.55;1.45;;;;;;;21.36;63.94;96340.00;5096186;28;20015;-31
2023/10/29 03:36:57;;;;;;;6.57;1.33;;;;;;;21.29;64.02;96332.19;5095656;28;20348;-31
2023/10/29 03:39:22;;;;;;;4.60;1.50;;;;;;;21.30;63.75;96343.97;5096170;28;20480;-33
2023/10/29 03:41:48;;;;;;;7.63;1.58;;;;;;;21.37;63.28;96351.78;5095821;28;20028;-31
2023/10/29 03:44:13;;;;;;;5.47;1.65;;;;;;;21.37;63.18;96349.03;5095677;28;20031;-32
2023/10/29 03:46:39;;;;;;;10.38;1.40;;;;;;;21.22;63.93;96342.97;5095512;28;20023;-31
2023/10/29 03:49:06;;;;;;;5.30;1.17;;;;;;;21.45;63.12;96350.78;5095441;28;20015;-32
2023/10/29 03:51:31;;;;;;;4.70;0.88;;;;;;;21.19;63.66;96341.97;5095673;28;20023;-31
2023/10/29 03:53:57;;;;;;;4.40;0.80;;;;;;;21.19;64.04;96344.72;5095716;28;20040;-31
2023/10/29 03:56:23;;;;;;;7.50;1.40;;;;;;;21.27;63.57;96344.97;5102625;28;20016;-31
2023/10/29 03:58:48;;;;;;;5.05;1.20;;;;;;;21.20;63.78;96342.72;5095671;28;20020;-32
2023/10/29 04:01:14;;;;;;;8.63;1.50;;;;;;;21.06;63.97;96345.16;5095050;28;20020;-31
2023/10/29 04:03:41;;;;;;;5.15;1.10;;;;;;;21.15;64.11;96347.69;5095616;28;20032;-32
2023/10/29 04:06:11;;;;;;;10.00;1.33;;;;;;;21.10;63.82;96342.94;5102265;28;20024;-31
2023/10/29 04:08:37;;;;;;;6.07;1.15;;;;;;;21.15;63.98;96342.16;5100587;28;20019;-31
2023/10/29 04:11:03;;;;;;;7.30;2.20;;;;;;;21.16;63.94;96338.16;5095662;28;20073;-31
2023/10/29 04:13:29;;;;;;;5.10;1.30;;;;;;;21.13;63.71;96336.41;5095209;28;20021;-31
2023/10/29 04:15:54;;;;;;;4.32;1.17;;;;;;;21.09;63.85;96337.91;5094964;28;20475;-31
2023/10/29 04:18:23;;;;;;;4.65;1.30;;;;;;;21.24;63.35;96327.44;5095169;28;20031;-32
2023/10/29 04:20:48;;;;;;;6.85;2.03;;;;;;;21.34;63.01;96328.69;5095081;28;20108;-31
2023/10/29 04:23:14;;;;;;;5.72;1.50;;;;;;;21.30;62.93;96327.44;5102445;28;20059;-31
2023/10/29 04:25:41;;;;;;;6.30;1.45;;;;;;;21.31;63.01;96326.19;5094833;28;20020;-31
2023/10/29 04:28:07;;;;;;;7.97;1.13;;;;;;;21.35;63.01;96337.72;5094981;28;20027;-32
2023/10/29 04:30:32;;;;;;;6.15;1.40;;;;;;;21.25;63.03;96328.19;5094563;28;20379;-30
2023/10/29 04:32:58;;;;;;;7.18;1.40;;;;;;;21.21;63.26;96324.91;5094757;28;20111;-31
2023/10/29 04:35:24;;;;;;;4.95;1.20;;;;;;;20.97;63.45;96328.84;5102032;28;20016;-31
2023/10/29 04:37:49;;;;;;;7.07;1.08;;;;;;;20.98;63.99;96324.84;5094411;28;20031;-31
2023/10/29 04:40:15;;;;;;;5.05;1.50;;;;;;;20.89;64.32;96324.34;5094607;28;20016;-32
2023/10/29 04:42:40;;;;;;;5.53;1.42;;;;;;;21.22;62.97;96320.91;5094519;28;20471;-31
2023/10/29 04:45:06;;;;;;;4.85;1.20;;;;;;;21.31;62.60;96329.69;5094520;28;20023;-31
2023/10/29 04:47:31;;;;;;;5.88;1.73;;;;;;;21.35;62.52;96321.19;5094820;28;20012;-32
2023/10/29 04:49:57;;;;;;;6.95;1.25;;;;;;;21.13;62.64;96328.16;5094359;28;20024;-31
2023/10/29 04:52:22;;;;;;;5.65;1.52;;;;;;;21.15;62.87;96325.63;5094657;28;20486;-31
2023/10/29 04:54:48;;;;;;;7.05;1.80;;;;;;;21.20;62.84;96315.13;5094699;28;20043;-31
2023/10/29 04:57:13;;;;;;;3.13;1.20;;;;;;;21.24;62.46;96327.44;5094430;28;20050;-32
2023/10/29 04:59:39;;;;;;;7.43;1.35;;;;;;;20.93;63.57;96322.06;5093986;28;20046;-32
2023/10/29 05:02:04;;;;;;;9.25;1.65;;;;;;;20.88;63.83;96315.31;5094584;28;20032;-31
2023/10/29 05:04:30;;;;;;;4.53;1.50;;;;;;;21.11;63.26;96316.84;5093451;28;20371;-31
2023/10/29 05:06:55;;;;;;;8.43;1.45;;;;;;;21.08;63.30;96315.09;5092638;28;20020;-31
2023/10/29 05:09:21;;;;;;;6.50;1.17;;;;;;;21.17;63.04;96320.38;5094446;28;20070;-31
2023/10/29 05:11:47;;;;;;;4.93;1.58;;;;;;;21.09;63.03;96316.59;5094158;28;20467;-30
2023/10/29 05:14:13;;;;;;;7.53;1.50;;;;;;;21.07;63.32;96319.09;5101703;28;20077;-31
2023/10/29 05:16:38;;;;;;;5.32;1.60;;;;;;;21.11;63.12;96321.63;5094081;28;20098;-31
2023/10/29 05:19:04;;;;;;;5.50;1.40;;;;;;;20.99;63.59;96318.09;5101356;28;20066;-31
2023/10/29 05:21:30;;;;;;;8.20;1.83;;;;;;;21.20;63.29;96315.88;5094306;28;20043;-31
2023/10/29 05:23:55;;;;;;;8.60;1.30;;;;;;;20.99;63.45;96329.13;5093808;28;20360;-31
2023/10/29 05:26:21;;;;;;;7.20;1.70;;;;;;;20.94;64.18;96329.84;5093950;28;20106;-31
2023/10/29 05:28:46;;;;;;;5.38;1.38;;;;;;;21.06;63.54;96331.38;5094215;28;20080;-32
2023/10/29 05:31:11;;;;;;;5.97;1.50;;;;;;;21.04;63.31;96336.63;5094154;28;20425;-32
2023/10/29 05:33:37;;;;;;;6.68;1.77;;;;;;;20.99;63.74;96339.38;5093633;28;20016;-31
2023/10/29 05:36:04;;;;;;;6.15;1.40;;;;;;;21.08;63.46;96339.91;5094096;28;20051;-31
2023/10/29 05:38:29;;;;;;;6.68;1.40;;;;;;;20.89;64.14;96335.34;5092561;28;20027;-31
2023/10/29 05:40:54;;;;;;;6.65;1.65;;;;;;;20.96;63.84;96335.63;5093748;28;20020;-31
2023/10/29 05:43:20;;;;;;;5.13;1.27;;;;;;;21.12;63.44;96351.47;5093655;28;20101;-31
2023/10/29 05:45:45;;;;;;;5.22;1.27;;;;;;;20.98;64.09;96337.88;5093885;28;20016;-31
2023/10/29 05:48:11;;;;;;;5.85;1.40;;;;;;;20.87;64.35;96348.88;5093837;28;20028;-31
2023/10/29 05:50:38;;;;;;;5.85;1.33;;;;;;;21.07;63.81;96343.16;5094080;28;20107;-31
2023/10/29 05:53:05;;;;;;;5.90;1.30;;;;;;;20.94;64.21;96338.13;5093228;28;20044;-31
2023/10/29 05:55:30;;;;;;;9.23;1.40;;;;;;;21.00;63.68;96347.16;5093656;28;20016;-31
2023/10/29 05:57:56;;;;;;;6.05;1.70;;;;;;;20.91;64.38;96341.84;5093516;28;20024;-31
2023/10/29 06:00:22;;;;;;;3.55;1.42;;;;;;;20.83;64.37;96346.34;5093633;28;20026;-31
2023/10/29 06:02:48;;;;;;;3.28;1.42;;;;;;;21.03;63.77;96351.66;5093465;28;20032;-31
2023/10/29 06:05:13;;;;;;;7.18;1.30;;;;;;;21.01;64.14;96345.91;5093493;28;20457;-31
2023/10/29 06:07:44;;;;;;;5.00;1.15;;;;;;;21.03;64.31;96346.16;5093053;28;20028;-31
2023/10/29 06:10:12;;;;;;;7.43;1.23;;;;;;;21.02;64.12;96361.19;5103790;28;20063;-31
2023/10/29 06:12:37;;;;;;;7.03;1.30;;;;;;;21.00;64.35;96354.69;5101591;28;20032;-31
2023/10/29 06:15:03;;;;;;;8.27;1.73;;;;;;;21.05;63.94;96370.47;5097821;28;20090;-32
2023/10/29 06:17:29;;;;;;;6.30;1.45;;;;;;;21.00;64.03;96358.19;5097327;28;20020;-31
2023/10/29 06:19:55;;;;;;;6.18;1.83;;;;;;;20.91;64.81;96360.41;5097559;28;20027;-31
2023/10/29 06:22:20;;;;;;;4.03;1.10;;;;;;;21.04;64.18;96364.19;5097327;28;20061;-31
2023/10/29 06:24:46;;;;;;;3.53;1.20;;;;;;;21.06;64.41;96364.47;5097087;28;20020;-31
2023/10/29 06:27:11;;;;;;;4.82;1.35;;;;;;;20.99;64.52;96367.72;5097456;28;20100;-31
2023/10/29 06:29:38;;;;;;;4.82;1.60;;;;;;;21.11;64.12;96372.00;5101214;28;20107;-31
2023/10/29 06:32:04;;;;;;;4.63;1.38;;;;;;;21.08;64.57;96384.03;5100465;28;20085;-31
2023/10/29 06:34:29;;;;;;;5.10;1.40;;;;;;;21.07;64.66;96388.03;5097573;28;20016;-31
2023/10/29 06:36:54;;;;;;;5.60;1.25;;;;;;;21.02;64.74;96388.00;5097035;28;20095;-31
2023/10/29 06:39:20;;;;;;;5.90;1.40;;;;;;;21.01;64.86;96386.53;5096883;28;20373;-31
2023/10/29 06:41:45;;;;;;;3.67;1.38;;;;;;;21.29;64.09;96389.38;5104189;28;20368;-31
2023/10/29 06:44:11;;;;;;;5.75;1.05;;;;;;;21.11;64.80;96385.78;5097045;28;20020;-31
2023/10/29 06:46:36;;;;;;;4.75;1.55;;;;;;;21.00;65.21;96388.53;5096515;28;20020;-31
2023/10/29 06:49:02;;;;;;;6.70;1.52;;;;;;;21.06;64.93;96392.03;5096879;28;20027;-31
2023/10/29 06:51:27;;;;;;;5.40;1.45;;;;;;;21.02;65.04;96388.00;5096686;28;20068;-31
2023/10/29 06:53:53;;;;;;;6.70;1.75;;;;;;;21.03;65.04;96390.25;5104429;28;20043;-31
2023/10/29 06:56:18;;;;;;;4.68;1.25;;;;;;;21.10;64.54;96389.81;5096884;28;20022;-31
2023/10/29 06:58:44;;;;;;;5.97;1.15;;;;;;;21.07;64.77;96393.53;5096728;28;20032;-31
2023/10/29 07:01:09;;;;;;;4.22;1.40;;;;;;;20.97;65.01;96397.78;5096459;28;20379;-31
2023/10/29 07:03:36;;;;;;;5.65;1.30;;;;;;;21.14;64.58;96403.34;5096377;28;20036;-31
2023/10/29 07:06:06;;;;;;;5.97;1.50;;;;;;;21.06;64.80;96405.81;5096673;28;20030;-31
2023/10/29 07:08:33;;;;;;;6.82;1.38;;;;;;;21.15;64.68;96402.84;5096406;28;20022;-31
2023/10/29 07:10:59;;;;;;;8.15;1.40;;;;;;;21.24;64.35;96401.91;5096352;28;20074;-31
2023/10/29 07:13:24;;;;;;;6.40;1.52;;;;;;;21.16;64.26;96409.88;5096453;28;20020;-31
2023/10/29 07:15:51;;;;;;;6.00;2.00;;;;;;;21.06;64.63;96407.81;5094961;28;20031;-32
2023/10/29 07:18:16;;;;;;;10.80;1.30;;;;;;;21.28;63.94;96418.94;5103942;28;20022;-32
2023/10/29 07:20:41;;;;;;;6.55;1.45;;;;;;;21.11;64.76;96423.66;5096533;28;20527;-31
2023/10/29 07:23:08;;;;;;;6.53;1.33;;;;;;;21.15;64.67;96430.41;5096330;28;20035;-31
2023/10/29 07:25:34;;;;;;;6.03;1.75;;;;;;;21.14;64.75;96428.91;5095860;28;20038;-31
2023/10/29 07:27:59;;;;;;;5.50;1.63;;;;;;;21.18;64.60;96434.19;5095937;28;20393;-31
2023/10/29 07:30:25;;;;;;;4.38;1.83;;;;;;;21.25;63.98;96433.00;5095864;28;20484;-31
2023/10/29 07:32:50;;;;;;;3.53;1.15;;;;;;;21.40;63.65;96439.03;5096057;28;20444;-31
2023/10/29 07:35:16;;;;;;;3.08;1.10;;;;;;;21.19;64.34;96437.72;5096654;28;20023;-31
2023/10/29 07:37:41;;;;;;;3.50;1.35;;;;;;;21.31;64.08;96442.03;5095493;28;20028;-31
2023/10/29 07:40:07;;;;;;;4.32;1.30;;;;;;;21.37;63.68;96440.81;5095805;28;20494;-31
2023/10/29 07:42:33;;;;;;;8.70;2.40;;;;;;;21.17;64.40;96444.47;5095714;28;20375;-32
2023/10/29 07:44:58;;;;;;;5.60;1.65;;;;;;;21.35;63.79;96440.56;5095370;28;20020;-31
2023/10/29 07:47:24;;;;;;;6.45;1.58;;;;;;;21.43;63.62;96449.84;5095769;28;20024;-31
2023/10/29 07:49:49;;;;;;;4.10;1.13;;;;;;;21.28;64.78;96451.28;5095770;28;20024;-31
2023/10/29 07:52:15;;;;;;;5.13;1.25;;;;;;;21.36;64.21;96455.84;5095859;28;20069;-31
2023/10/29 07:54:41;;;;;;;5.35;1.40;;;;;;;21.32;64.11;96451.81;5095332;28;20048;-31
2023/10/29 07:57:07;;;;;;;5.82;1.40;;;;;;;21.23;64.26;96452.81;5095446;28;20020;-31
2023/10/29 07:59:34;;;;;;;4.30;1.52;;;;;;;21.29;64.36;96466.59;5095028;28;20460;-31
2023/10/29 08:01:59;;;;;;;5.07;1.10;;;;;;;21.22;64.38;96456.06;5103236;28;20375;-31
2023/10/29 08:04:26;;;;;;;4.97;1.35;;;;;;;21.35;63.91;96453.59;5095145;28;20020;-31
2023/10/29 08:06:51;;;;;;;6.70;1.27;;;;;;;21.27;64.37;96469.09;5102595;28;20031;-31
2023/10/29 08:09:17;;;;;;;5.95;1.40;;;;;;;21.41;64.29;96462.63;5095110;28;20031;-32
2023/10/29 08:11:43;;;;;;;3.55;1.00;;;;;;;21.45;64.16;96469.41;5095213;28;20020;-31
2023/10/29 08:14:08;;;;;;;3.70;1.23;;;;;;;21.45;64.02;96466.66;5094959;28;20023;-31
2023/10/29 08:16:33;;;;;;;3.35;1.20;;;;;;;21.39;64.58;96476.16;5102510;28;20027;-31
2023/10/29 08:18:59;;;;;;;6.57;1.40;;;;;;;21.46;63.72;96486.72;5095433;28;20077;-32
2023/10/29 08:21:25;;;;;;;4.18;1.48;;;;;;;21.30;64.50;96490.16;5094912;28;20073;-32
2023/10/29 08:23:51;;;;;;;5.00;1.20;;;;;;;21.50;63.69;96485.25;5095176;28;20030;-31
2023/10/29 08:26:16;;;;;;;4.35;1.20;;;;;;;21.39;64.16;96489.94;5094799;28;20028;-31
2023/10/29 08:28:42;;;;;;;4.20;0.80;;;;;;;21.31;64.09;96484.16;5094934;28;20031;-31
2023/10/29 08:31:08;;;;;;;4.72;0.80;;;;;;;21.57;63.46;96484.00;5094563;28;20467;-31
2023/10/29 08:33:33;;;;;;;4.38;1.05;;;;;;;21.60;63.62;96491.28;5094017;28;20028;-31
2023/10/29 08:35:59;;;;;;;7.63;1.30;;;;;;;21.52;64.06;96496.50;5095340;28;20074;-31
2023/10/29 08:38:24;;;;;;;7.63;1.30;;;;;;;21.64;63.64;96485.50;5094403;28;20056;-31
2023/10/29 08:40:49;;;;;;;3.08;0.90;;;;;;;21.80;62.97;96491.06;5094641;28;20107;-31
2023/10/29 08:43:16;;;;;;;3.97;1.60;;;;;;;21.85;62.98;96490.34;5094637;28;20103;-31
2023/10/29 08:45:41;;;;;;;4.50;0.85;;;;;;;21.68;64.03;96492.28;5100809;28;20098;-31
2023/10/29 08:48:07;;;;;;;6.65;0.90;;;;;;;21.75;63.61;96489.06;5094755;28;20432;-31
2023/10/29 08:50:33;;;;;;;7.28;1.80;;;;;;;21.78;63.74;96482.53;5094288;28;20032;-31
2023/10/29 08:52:58;;;;;;;4.65;0.85;;;;;;;21.83;63.52;96481.03;5094266;28;20092;-31
2023/10/29 08:55:25;;;;;;;3.28;0.95;;;;;;;21.78;63.35;96481.78;5094366;28;20103;-31
2023/10/29 08:57:50;;;;;;;5.40;1.40;;;;;;;21.49;64.71;96480.22;5095622;28;20541;-32
2023/10/29 09:00:16;;;;;;;6.15;1.00;;;;;;;21.93;63.01;96490.59;5099800;28;20004;-31
2023/10/29 09:02:41;;;;;;;5.95;1.50;;;;;;;21.76;63.47;96481.53;5094740;28;20027;-31
2023/10/29 09:05:08;;;;;;;5.20;1.02;;;;;;;21.90;63.29;96471.50;5094221;28;20019;-31
2023/10/29 09:07:34;;;;;;;5.40;1.20;;;;;;;21.82;63.70;96485.81;5093810;28;20528;-31
2023/10/29 09:10:00;;;;;;;5.70;1.45;;;;;;;22.12;62.13;96485.38;5094127;28;20030;-31
2023/10/29 09:12:26;;;;;;;5.95;1.00;;;;;;;21.93;63.28;96489.84;5101859;28;20020;-31
2023/10/29 09:14:51;;;;;;;6.75;1.10;;;;;;;22.04;62.66;96490.63;5094630;28;20081;-31
2023/10/29 09:17:17;;;;;;;5.35;0.80;;;;;;;21.97;62.83;96499.38;5093821;28;20069;-31
2023/10/29 09:19:42;;;;;;;5.53;1.10;;;;;;;21.95;62.90;96482.56;5093785;28;20024;-31
2023/10/29 09:22:07;;;;;;;8.45;1.20;;;;;;;21.94;63.19;96474.78;5094101;28;20062;-31
2023/10/29 09:24:33;;;;;;;3.92;0.82;;;;;;;22.18;62.21;96488.88;5093766;28;20055;-31
2023/10/29 09:26:58;;;;;;;6.05;1.27;;;;;;;21.90;62.91;96482.53;5093657;28;20047;-31
2023/10/29 09:29:24;;;;;;;4.28;1.50;;;;;;;22.04;62.39;96474.06;5094149;28;20125;-31
2023/10/29 09:31:51;;;;;;;5.50;0.90;;;;;;;22.17;62.30;96490.13;5094063;28;20020;-31
2023/10/29 09:34:18;;;;;;;4.85;1.00;;;;;;;21.94;62.48;96488.56;5094207;28;20383;-31
2023/10/29 09:36:43;;;;;;;5.53;1.20;;;;;;;22.15;62.17;96489.88;5093501;28;20055;-31
2023/10/29 09:39:09;;;;;;;4.72;1.10;;;;;;;21.97;62.56;96490.34;5093497;28;20051;-31
2023/10/29 09:41:37;;;;;;;5.45;0.80;;;;;;;22.20;61.54;96487.13;5094214;28;20023;-31
2023/10/29 09:44:07;;;;;;;2.45;0.93;;;;;;;22.07;61.86;96488.88;5093602;28;20016;-32
2023/10/29 09:46:36;;;;;;;5.80;0.93;;;;;;;22.32;61.22;96496.16;5093908;28;20028;-31
2023/10/29 09:49:03;;;;;;;9.80;1.10;;;;;;;22.30;61.42;96501.44;5093632;28;20020;-31
2023/10/29 09:51:29;;;;;;;6.63;1.10;;;;;;;22.16;61.83;96496.91;5093556;28;20020;-31
2023/10/29 09:53:57;;;;;;;6.18;1.45;;;;;;;22.19;61.24;96493.16;5093618;28;20442;-31
2023/10/29 09:56:25;;;;;;;6.05;1.35;;;;;;;22.32;60.79;96509.97;5093578;28;20020;-31
2023/10/29 09:58:50;;;;;;;2.10;0.95;;;;;;;22.41;60.47;96501.44;5093869;28;20456;-32
2023/10/29 10:01:16;;;;;;;6.13;1.08;;;;;;;22.38;60.64;96501.66;5092285;28;20051;-31
2023/10/29 10:03:41;;;;;;;4.80;1.10;;;;;;;22.27;60.69;96502.44;5093630;28;20024;-32
2023/10/29 10:06:08;;;;;;;4.93;0.90;;;;;;;22.42;60.80;96511.22;5093157;28;20107;-31
2023/10/29 10:08:33;;;;;;;4.90;1.00;;;;;;;22.35;60.28;96516.50;5093723;28;20020;-31
2023/10/29 10:10:59;;;;;;;4.03;1.08;;;;;;;22.23;60.87;96507.47;5093816;28;20031;-31
2023/10/29 10:13:44;;;;;;;5.50;0.90;;;;;;;22.37;60.49;96506.47;5093371;28;20036;-31
2023/10/29 10:16:11;;;;;;;4.85;1.00;;;;;;;22.45;60.24;96506.72;5094146;28;20077;-31
2023/10/29 10:18:50;;;;;;;3.13;1.10;;;;;;;22.21;60.94;96496.91;5093471;28;20033;-31
2023/10/29 10:21:20;;;;;;;4.40;0.90;;;;;;;22.11;60.65;96494.91;5093273;28;20023;-32
2023/10/29 10:23:54;;;;;;;3.28;1.02;;;;;;;22.44;59.79;96503.19;5099752;28;20023;-31
2023/10/29 10:26:36;;;;;;;4.40;1.17;;;;;;;22.23;60.22;96485.38;5095097;28;20043;-31
2023/10/29 10:29:04;;;;;;;4.45;0.80;;;;;;;22.43;59.47;96500.94;5096560;28;20028;-31
2023/10/29 10:31:36;;;;;;;4.07;1.00;;;;;;;22.30;59.57;96503.44;5093742;28;20360;-31
2023/10/29 10:34:16;;;;;;;3.78;1.00;;;;;;;22.45;58.84;96501.94;5092138;28;20110;-31
2023/10/29 10:36:46;;;;;;;3.17;1.00;;;;;;;22.32;59.43;96498.94;5093659;28;20439;-31
2023/10/29 10:39:12;;;;;;;6.85;1.20;;;;;;;22.28;59.51;96503.94;5092991;28;20507;-32
2023/10/29 10:41:38;;;;;;;12.63;1.38;;;;;;;22.30;59.78;96506.97;5100588;28;20059;-31
2023/10/29 10:44:15;;;;;;;5.85;1.50;;;;;;;22.19;59.18;96502.19;5093177;28;20120;-31
2023/10/29 10:46:46;;;;;;;4.13;1.10;;;;;;;22.24;59.75;96495.16;5093210;28;20024;-31
2023/10/29 10:49:13;;;;;;;5.45;1.10;;;;;;;22.16;59.95;96492.13;5093456;28;20084;-32
2023/10/29 10:51:39;;;;;;;6.80;1.25;;;;;;;22.14;59.71;96500.16;5100606;28;20063;-32
2023/10/29 10:54:05;;;;;;;6.55;1.10;;;;;;;22.24;59.46;96503.44;5100701;28;20055;-31
2023/10/29 10:56:35;;;;;;;7.63;1.38;;;;;;;22.32;59.71;96496.16;5093412;28;20027;-32
2023/10/29 10:59:05;;;;;;;4.88;1.27;;;;;;;22.25;59.78;96499.44;5104165;28;20069;-31
2023/10/29 11:01:38;;;;;;;7.40;0.98;;;;;;;22.16;60.18;96491.38;5096315;28;20428;-31
2023/10/29 11:04:07;;;;;;;7.70;1.45;;;;;;;22.09;59.78;96492.66;5111395;28;20020;-32
2023/10/29 11:06:35;;;;;;;4.25;0.90;;;;;;;22.03;59.87;96489.13;5096417;28;20062;-31
2023/10/29 11:09:01;;;;;;;3.88;1.08;;;;;;;22.14;59.37;96491.13;5096608;28;20099;-31
2023/10/29 11:11:34;;;;;;;4.55;1.00;;;;;;;22.24;59.40;96497.19;5096159;28;20024;-31
2023/10/29 11:14:16;;;;;;;6.25;1.05;;;;;;;22.05;59.55;96478.31;5096621;28;20016;-31
2023/10/29 11:16:59;;;;;;;3.72;0.93;;;;;;;22.29;58.90;96485.34;5096558;28;20032;-33
2023/10/29 11:19:46;;;;;;;3.40;1.13;;;;;;;22.12;58.98;96485.38;5103155;28;20020;-31
2023/10/29 11:22:22;;;;;;;6.50;1.20;;;;;;;22.19;58.01;96484.84;5094985;28;20455;-31
2023/10/29 11:25:08;;;;;;;3.30;1.20;;;;;;;22.10;58.72;96485.13;5096044;28;20470;-31
2023/10/29 11:27:38;;;;;;;5.72;1.23;;;;;;;22.24;57.64;96481.34;5095953;28;20024;-31
2023/10/29 11:30:14;;;;;;;3.38;0.90;;;;;;;22.12;58.02;96485.38;5095695;28;20165;-31